createdAt,value
2022-10-29T00:00:58.975Z,24.30
2022-10-29T00:03:27.678Z,35.43
2022-10-29T00:06:01.689Z,20.67
2022-10-29T00:08:32.354Z,22.63
2022-10-29T00:11:08.340Z,26.57
2022-10-29T00:13:37.472Z,24.23
2022-10-29T00:16:07.649Z,33.23
2022-10-29T00:18:35.675Z,34.87
2022-10-29T00:21:07.301Z,25.80
2022-10-29T00:23:35.958Z,19.43
2022-10-29T00:26:04.849Z,19.97
2022-10-29T00:28:33.752Z,18.27
2022-10-29T00:31:04.839Z,19.03
2022-10-29T00:33:33.806Z,17.70
2022-10-29T00:36:03.966Z,21.97
2022-10-29T00:38:34.717Z,17.37
2022-10-29T00:41:03.292Z,20.00
2022-10-29T00:43:31.523Z,17.53
2022-10-29T00:46:04.161Z,21.90
2022-10-29T00:48:36.008Z,19.27
2022-10-29T00:51:07.343Z,17.70
2022-10-29T00:53:41.574Z,23.23
2022-10-29T00:56:09.760Z,19.67
2022-10-29T00:58:38.124Z,15.93
2022-10-29T01:01:06.704Z,16.17
2022-10-29T01:03:34.966Z,22.63
2022-10-29T01:06:04.764Z,20.20
2022-10-29T01:08:32.972Z,20.63
2022-10-29T01:11:13.136Z,22.77
2022-10-29T01:13:58.273Z,15.53
2022-10-29T01:16:32.969Z,17.83
2022-10-29T01:19:14.032Z,19.10
2022-10-29T01:21:45.163Z,19.67
2022-10-29T01:24:50.893Z,21.80
2022-10-29T01:27:54.945Z,19.87
2022-10-29T01:30:42.451Z,17.30
2022-10-29T01:33:23.519Z,29.33
2022-10-29T01:35:59.632Z,20.03
2022-10-29T01:38:36.935Z,20.33
2022-10-29T01:41:13.450Z,18.37
2022-10-29T01:43:48.358Z,19.30
2022-10-29T01:46:20.793Z,21.07
2022-10-29T01:48:54.317Z,22.70
2022-10-29T01:51:25.172Z,25.87
2022-10-29T01:53:54.542Z,22.07
2022-10-29T01:56:22.619Z,23.90
2022-10-29T01:58:53.735Z,26.23
2022-10-29T02:01:34.007Z,23.20
2022-10-29T02:04:18.733Z,27.03
2022-10-29T02:07:00.647Z,19.60
2022-10-29T02:09:35.193Z,20.13
2022-10-29T02:12:10.708Z,18.50
2022-10-29T02:14:42.857Z,22.27
2022-10-29T02:17:11.135Z,20.67
2022-10-29T02:19:40.672Z,21.53
2022-10-29T02:22:08.736Z,27.63
2022-10-29T02:24:36.746Z,23.23
2022-10-29T02:27:04.896Z,22.57
2022-10-29T02:29:33.034Z,20.43
2022-10-29T02:32:01.079Z,16.00
2022-10-29T02:34:29.103Z,19.67
2022-10-29T02:36:58.584Z,22.63
2022-10-29T02:39:26.652Z,17.17
2022-10-29T02:41:54.625Z,15.90
2022-10-29T02:44:22.776Z,15.40
2022-10-29T02:46:50.821Z,18.57
2022-10-29T02:49:19.017Z,18.93
2022-10-29T02:51:47.069Z,20.07
2022-10-29T02:54:16.488Z,15.87
2022-10-29T02:56:44.516Z,16.20
2022-10-29T02:59:12.523Z,16.27
2022-10-29T03:01:40.640Z,14.53
2022-10-29T03:04:08.758Z,12.37
2022-10-29T03:06:37.809Z,15.57
2022-10-29T03:09:06.069Z,13.67
2022-10-29T03:11:35.470Z,14.83
2022-10-29T03:14:03.553Z,15.13
2022-10-29T03:16:31.685Z,13.67
2022-10-29T03:18:59.703Z,12.03
2022-10-29T03:21:27.812Z,14.83
2022-10-29T03:23:56.026Z,15.87
2022-10-29T03:26:24.102Z,16.07
2022-10-29T03:28:53.663Z,15.23
2022-10-29T03:31:21.699Z,15.63
2022-10-29T03:33:49.718Z,14.40
2022-10-29T03:36:18.006Z,18.23
2022-10-29T03:38:46.109Z,17.03
2022-10-29T03:41:14.166Z,13.83
2022-10-29T03:43:42.397Z,15.27
2022-10-29T03:46:11.874Z,12.67
2022-10-29T03:48:39.880Z,13.13
2022-10-29T03:51:08.193Z,15.23
2022-10-29T03:53:37.720Z,14.67
2022-10-29T03:56:06.890Z,13.33
2022-10-29T03:58:35.014Z,19.97
2022-10-29T04:01:04.951Z,19.17
2022-10-29T04:03:36.139Z,17.70
2022-10-29T04:06:11.616Z,14.67
2022-10-29T04:08:40.149Z,13.50
2022-10-29T04:11:10.196Z,15.50
2022-10-29T04:13:38.213Z,14.50
2022-10-29T04:16:06.869Z,12.40
2022-10-29T04:18:36.496Z,10.87
2022-10-29T04:29:31.556Z,13.77
2022-10-29T04:31:59.647Z,11.10
2022-10-29T04:34:29.120Z,15.37
2022-10-29T04:36:57.147Z,15.60
2022-10-29T04:39:25.415Z,12.13
2022-10-29T04:41:53.439Z,12.23
2022-10-29T04:44:21.909Z,20.00
2022-10-29T04:46:49.914Z,13.20
2022-10-29T04:49:18.664Z,12.80
2022-10-29T04:51:48.362Z,17.93
2022-10-29T04:54:16.968Z,11.13
2022-10-29T04:56:45.179Z,15.40
2022-10-29T04:59:16.389Z,11.53
2022-10-29T05:01:45.194Z,16.93
2022-10-29T05:04:14.239Z,13.93
2022-10-29T05:06:42.735Z,17.27
2022-10-29T05:09:13.399Z,10.47
2022-10-29T05:11:41.497Z,12.43
2022-10-29T05:14:09.678Z,17.07
2022-10-29T05:16:38.842Z,11.30
2022-10-29T05:19:07.150Z,16.63
2022-10-29T05:21:37.356Z,17.10
2022-10-29T05:24:05.633Z,16.77
2022-10-29T05:26:35.127Z,17.83
2022-10-29T05:29:03.252Z,14.90
2022-10-29T05:31:31.436Z,14.10
2022-10-29T05:33:59.970Z,17.63
2022-10-29T05:36:28.490Z,11.97
2022-10-29T05:38:56.537Z,13.57
2022-10-29T05:41:24.826Z,13.47
2022-10-29T05:43:54.396Z,19.97
2022-10-29T05:46:22.497Z,16.40
2022-10-29T05:48:50.587Z,14.80
2022-10-29T05:51:18.945Z,10.50
2022-10-29T05:53:48.113Z,16.10
2022-10-29T05:56:16.265Z,13.40
2022-10-29T05:58:45.705Z,17.83
2022-10-29T06:01:15.410Z,13.03
2022-10-29T06:03:43.675Z,19.13
2022-10-29T06:06:11.891Z,13.20
2022-10-29T06:08:40.019Z,15.90
2022-10-29T06:11:08.143Z,18.77
2022-10-29T06:13:36.457Z,15.63
2022-10-29T06:16:04.585Z,13.10
2022-10-29T06:18:34.184Z,18.67
2022-10-29T06:21:02.459Z,17.40
2022-10-29T06:23:31.015Z,13.43
2022-10-29T06:26:01.012Z,19.20
2022-10-29T06:28:33.654Z,17.40
2022-10-29T06:31:03.663Z,12.90
2022-10-29T06:33:33.152Z,10.73
2022-10-29T06:36:02.095Z,15.00
2022-10-29T06:38:30.221Z,13.33
2022-10-29T06:40:58.605Z,17.20
2022-10-29T06:43:27.889Z,10.63
2022-10-29T06:45:55.981Z,13.30
2022-10-29T06:48:24.258Z,10.93
2022-10-29T06:50:53.842Z,11.40
2022-10-29T06:53:22.195Z,13.43
2022-10-29T06:55:50.424Z,17.00
2022-10-29T06:58:21.062Z,9.90
2022-10-29T07:00:49.447Z,9.63
2022-10-29T07:03:20.366Z,15.23
2022-10-29T07:05:48.817Z,10.83
2022-10-29T07:08:18.231Z,10.07
2022-10-29T07:10:46.511Z,10.10
2022-10-29T07:13:14.511Z,11.90
2022-10-29T07:15:42.531Z,9.30
2022-10-29T07:18:12.559Z,9.10
2022-10-29T07:20:44.958Z,9.30
2022-10-29T07:23:14.235Z,12.03
2022-10-29T07:25:43.885Z,15.17
2022-10-29T07:28:14.634Z,10.40
2022-10-29T07:30:42.996Z,11.43
2022-10-29T07:33:11.209Z,11.73
2022-10-29T07:35:39.913Z,9.00
2022-10-29T07:38:11.256Z,11.67
2022-10-29T07:40:40.759Z,11.23
2022-10-29T07:43:10.459Z,7.03
2022-10-29T07:45:38.572Z,7.93
2022-10-29T07:48:08.768Z,11.57
2022-10-29T07:50:37.741Z,7.80
2022-10-29T07:53:07.404Z,10.93
2022-10-29T07:55:35.634Z,9.67
2022-10-29T07:58:05.922Z,10.33
2022-10-29T08:00:37.031Z,9.60
2022-10-29T08:03:05.875Z,9.63
2022-10-29T08:05:34.459Z,8.60
2022-10-29T08:08:02.999Z,9.17
2022-10-29T08:10:32.655Z,7.23
2022-10-29T08:13:02.559Z,12.57
2022-10-29T08:15:32.733Z,9.73
2022-10-29T08:18:03.671Z,8.27
2022-10-29T08:20:31.786Z,9.80
2022-10-29T08:23:02.662Z,11.47
2022-10-29T08:25:30.803Z,8.37
2022-10-29T08:28:03.466Z,8.77
2022-10-29T08:30:32.897Z,12.47
2022-10-29T08:33:02.667Z,11.43
2022-10-29T08:35:31.279Z,10.43
2022-10-29T08:37:59.634Z,10.37
2022-10-29T08:40:39.250Z,13.57
2022-10-29T08:43:37.176Z,7.33
2022-10-29T08:46:05.585Z,14.17
2022-10-29T08:48:46.673Z,11.23
2022-10-29T08:51:19.146Z,10.40
2022-10-29T08:53:58.947Z,13.10
2022-10-29T08:56:44.745Z,14.50
2022-10-29T08:59:16.339Z,8.83
2022-10-29T09:01:45.303Z,13.73
2022-10-29T09:04:24.757Z,11.47
2022-10-29T09:07:19.693Z,10.93
2022-10-29T09:09:57.828Z,13.47
2022-10-29T09:12:56.373Z,13.43
2022-10-29T09:15:42.336Z,15.10
2022-10-29T09:18:22.136Z,11.10
2022-10-29T09:21:00.516Z,15.13
2022-10-29T09:23:44.705Z,17.00
2022-10-29T09:26:17.699Z,8.68
2022-10-29T09:28:56.664Z,9.30
2022-10-29T09:31:31.661Z,11.53
2022-10-29T09:34:13.322Z,10.15
2022-10-29T09:36:43.040Z,10.52
2022-10-29T09:39:15.290Z,10.85
2022-10-29T09:41:45.520Z,8.98
2022-10-29T09:44:24.678Z,9.40
2022-10-29T09:47:09.994Z,9.60
2022-10-29T09:49:53.532Z,15.40
2022-10-29T09:52:26.129Z,9.45
2022-10-29T09:54:55.559Z,6.85
2022-10-29T09:57:26.191Z,9.77
2022-10-29T09:59:58.314Z,9.68
2022-10-29T10:02:34.160Z,7.05
2022-10-29T10:05:06.480Z,9.00
2022-10-29T10:07:35.981Z,9.32
2022-10-29T10:10:07.942Z,7.13
2022-10-29T10:12:47.397Z,9.13
2022-10-29T10:15:21.577Z,8.07
2022-10-29T10:17:59.650Z,7.68
2022-10-29T10:20:34.525Z,7.93
2022-10-29T10:23:23.521Z,10.32
2022-10-29T10:25:52.946Z,10.63
2022-10-29T10:28:23.367Z,8.18
2022-10-29T10:31:13.472Z,8.85
2022-10-29T10:33:53.055Z,9.40
2022-10-29T10:36:24.872Z,8.23
2022-10-29T10:38:57.093Z,8.23
2022-10-29T10:41:28.941Z,5.90
2022-10-29T10:44:01.003Z,7.20
2022-10-29T10:46:33.218Z,10.35
2022-10-29T10:49:04.472Z,6.03
2022-10-29T10:51:34.331Z,12.10
2022-10-29T10:54:24.585Z,12.10
2022-10-29T10:56:59.826Z,9.38
2022-10-29T10:59:38.503Z,6.35
2022-10-29T11:02:16.978Z,6.97
2022-10-29T11:04:46.971Z,7.45
2022-10-29T11:07:17.204Z,7.47
2022-10-29T11:09:50.143Z,7.40
2022-10-29T11:12:31.350Z,8.48
2022-10-29T11:15:06.683Z,6.63
2022-10-29T11:17:42.814Z,7.60
2022-10-29T11:20:22.853Z,12.65
2022-10-29T11:23:02.277Z,6.28
2022-10-29T11:25:40.960Z,7.20
2022-10-29T11:28:19.894Z,5.60
2022-10-29T11:30:53.131Z,5.40
2022-10-29T11:33:28.021Z,8.63
2022-10-29T11:36:02.102Z,12.00
2022-10-29T11:38:35.269Z,6.45
2022-10-29T11:41:11.879Z,5.82
2022-10-29T11:43:39.893Z,5.57
2022-10-29T11:46:19.374Z,3.22
2022-10-29T11:48:56.183Z,7.85
2022-10-29T11:51:34.357Z,4.45
2022-10-29T11:54:05.935Z,5.10
2022-10-29T11:56:50.583Z,3.33
2022-10-29T11:59:31.076Z,4.35
2022-10-29T12:02:10.598Z,7.63
2022-10-29T12:04:44.458Z,6.25
2022-10-29T12:07:27.020Z,6.15
2022-10-29T12:10:37.549Z,5.60
2022-10-29T12:13:17.775Z,4.85
2022-10-29T12:15:54.000Z,10.02
2022-10-29T12:18:30.571Z,4.72
2022-10-29T12:21:05.220Z,5.75
2022-10-29T12:23:47.735Z,3.25
2022-10-29T12:26:22.533Z,7.78
2022-10-29T12:29:00.197Z,5.10
2022-10-29T12:31:33.011Z,7.50
2022-10-29T12:34:06.895Z,4.00
2022-10-29T12:36:39.917Z,3.78
2022-10-29T12:39:16.004Z,4.47
2022-10-29T12:41:47.761Z,6.68
2022-10-29T12:44:24.233Z,4.63
2022-10-29T12:46:58.950Z,4.82
2022-10-29T12:49:45.132Z,5.65
2022-10-29T12:52:18.309Z,5.25
2022-10-29T12:54:48.303Z,7.03
2022-10-29T12:57:30.244Z,6.35
2022-10-29T13:00:49.652Z,3.22
2022-10-29T13:03:54.593Z,5.35
2022-10-29T13:07:04.666Z,4.47
2022-10-29T13:09:35.923Z,3.33
2022-10-29T13:12:08.437Z,6.53
2022-10-29T13:14:41.852Z,5.15
2022-10-29T13:17:27.475Z,13.05
2022-10-29T13:19:59.051Z,3.35
2022-10-29T13:22:50.760Z,7.78
2022-10-29T13:25:52.757Z,10.95
2022-10-29T13:28:51.121Z,11.32
2022-10-29T13:31:46.062Z,3.25
2022-10-29T13:34:47.322Z,4.35
2022-10-29T13:37:51.533Z,9.93
2022-10-29T13:40:42.907Z,6.50
2022-10-29T13:43:18.220Z,4.90
2022-10-29T13:45:51.608Z,10.48
2022-10-29T13:48:27.215Z,7.00
2022-10-29T13:50:58.002Z,6.03
2022-10-29T13:53:39.869Z,7.95
2022-10-29T13:56:20.845Z,4.63
2022-10-29T13:58:50.568Z,4.53
2022-10-29T14:01:22.909Z,7.95
2022-10-29T14:04:02.263Z,6.47
2022-10-29T14:06:36.110Z,4.70
2022-10-29T14:09:14.835Z,7.28
2022-10-29T14:11:48.097Z,6.47
2022-10-29T14:14:29.228Z,5.75
2022-10-29T14:17:17.754Z,6.85
2022-10-29T14:19:47.815Z,4.53
2022-10-29T14:22:36.047Z,6.60
2022-10-29T14:25:21.944Z,10.48
2022-10-29T14:28:10.368Z,3.70
2022-10-29T14:30:38.487Z,3.90
2022-10-29T14:33:19.590Z,11.38
2022-10-29T14:35:48.391Z,3.83
2022-10-29T14:38:18.547Z,7.07
2022-10-29T14:40:48.046Z,5.35
2022-10-29T14:43:25.730Z,4.22
2022-10-29T14:45:54.512Z,7.97
2022-10-29T14:48:23.142Z,11.55
2022-10-29T14:50:56.661Z,11.05
2022-10-29T14:53:34.572Z,9.95
2022-10-29T14:56:12.436Z,10.00
2022-10-29T14:58:43.575Z,8.43
2022-10-29T15:01:15.964Z,7.60
2022-10-29T15:03:44.314Z,11.32
2022-10-29T15:06:15.712Z,9.90
2022-10-29T15:08:45.989Z,12.65
2022-10-29T15:11:36.178Z,13.05
2022-10-29T15:14:23.044Z,15.15
2022-10-29T15:16:51.178Z,9.25
2022-10-29T15:19:20.134Z,12.50
2022-10-29T15:21:48.201Z,12.57
2022-10-29T15:24:21.662Z,10.75
2022-10-29T15:26:52.817Z,193.07
2022-10-29T15:29:30.546Z,141.15
2022-10-29T15:32:00.601Z,21.02
2022-10-29T15:34:34.307Z,49.00
2022-10-29T15:37:17.105Z,19.77
2022-10-29T15:40:06.737Z,12.15
2022-10-29T15:42:37.753Z,8.73
2022-10-29T15:45:17.510Z,13.73
2022-10-29T15:47:48.401Z,16.00
2022-10-29T15:50:18.264Z,15.95
2022-10-29T15:52:49.691Z,17.25
2022-10-29T15:55:26.638Z,20.20
2022-10-29T15:58:01.030Z,10.80
2022-10-29T16:00:31.738Z,18.73
2022-10-29T16:03:04.115Z,18.70
2022-10-29T16:05:33.084Z,24.20
2022-10-29T16:08:04.279Z,20.23
2022-10-29T16:10:32.649Z,20.58
2022-10-29T16:13:01.118Z,25.65
2022-10-29T16:15:30.559Z,27.38
2022-10-29T16:17:59.149Z,29.52
2022-10-29T16:20:27.503Z,22.65
2022-10-29T16:22:55.558Z,20.80
2022-10-29T16:25:26.345Z,25.88
2022-10-29T16:27:55.128Z,23.33
2022-10-29T16:30:24.829Z,21.98
2022-10-29T16:32:54.878Z,34.78
2022-10-29T16:35:24.965Z,27.87
2022-10-29T16:37:54.493Z,28.23
2022-10-29T16:40:24.446Z,21.52
2022-10-29T16:42:55.295Z,23.90
2022-10-29T16:45:26.096Z,30.73
2022-10-29T16:47:56.101Z,28.63
2022-10-29T16:50:25.811Z,26.97
2022-10-29T16:52:58.625Z,24.40
2022-10-29T16:55:27.406Z,24.47
2022-10-29T16:57:55.842Z,23.33
2022-10-29T17:00:26.012Z,25.33
2022-10-29T17:02:55.587Z,17.87
2022-10-29T17:05:23.846Z,25.13
2022-10-29T17:07:54.695Z,37.67
2022-10-29T17:10:23.233Z,26.53
2022-10-29T17:12:51.302Z,24.27
2022-10-29T17:15:19.739Z,29.93
2022-10-29T17:17:47.795Z,17.13
2022-10-29T17:20:17.315Z,21.53
2022-10-29T17:22:45.851Z,28.80
2022-10-29T17:25:14.206Z,25.63
2022-10-29T17:27:42.694Z,29.63
2022-10-29T17:30:11.946Z,29.87
2022-10-29T17:32:40.198Z,29.23
2022-10-29T17:35:08.599Z,31.50
2022-10-29T17:37:38.026Z,32.60
2022-10-29T17:40:08.441Z,27.07
2022-10-29T17:42:36.825Z,26.07
2022-10-29T17:45:05.075Z,20.93
2022-10-29T17:47:33.111Z,26.33
2022-10-29T17:50:01.138Z,33.43
2022-10-29T17:52:29.148Z,35.63
2022-10-29T17:54:58.642Z,23.93
2022-10-29T17:57:26.618Z,25.97
2022-10-29T17:59:54.893Z,23.40
2022-10-29T18:02:23.003Z,23.10
2022-10-29T18:04:51.174Z,28.57
2022-10-29T18:07:19.376Z,27.03
2022-10-29T18:09:47.625Z,22.20
2022-10-29T18:12:17.594Z,24.20
2022-10-29T18:14:45.685Z,26.27
2022-10-29T18:17:13.790Z,24.07
2022-10-29T18:19:41.736Z,23.43
2022-10-29T18:22:09.826Z,22.47
2022-10-29T18:24:37.904Z,16.97
2022-10-29T18:27:06.014Z,17.90
2022-10-29T18:29:35.611Z,17.37
2022-10-29T18:32:03.704Z,17.70
2022-10-29T18:34:32.375Z,13.60
2022-10-29T18:37:00.473Z,10.03
2022-10-29T18:39:28.575Z,8.63
2022-10-29T18:41:57.047Z,12.53
2022-10-29T18:44:25.924Z,11.77
2022-10-29T18:46:55.385Z,10.27
2022-10-29T18:49:25.052Z,15.13
2022-10-29T18:51:54.739Z,14.70
2022-10-29T18:54:23.322Z,13.63
2022-10-29T18:56:51.576Z,8.83
2022-10-29T18:59:19.764Z,8.17
2022-10-29T19:01:47.893Z,10.47
2022-10-29T19:04:17.815Z,8.07
2022-10-29T19:06:46.075Z,7.97
2022-10-29T19:09:14.610Z,7.67
2022-10-29T19:11:42.755Z,8.33
2022-10-29T19:14:14.875Z,10.83
2022-10-29T19:16:43.245Z,12.07
2022-10-29T19:19:14.428Z,11.87
2022-10-29T19:21:44.817Z,10.23
2022-10-29T19:24:15.351Z,13.33
2022-10-29T19:26:44.566Z,13.23
2022-10-29T19:29:13.539Z,16.40
2022-10-29T19:31:42.652Z,11.83
2022-10-29T19:34:11.020Z,11.77
2022-10-29T19:36:40.450Z,16.53
2022-10-29T19:39:10.112Z,18.80
2022-10-29T19:41:38.211Z,14.47
2022-10-29T19:44:06.745Z,20.67
2022-10-29T19:46:34.874Z,15.63
2022-10-29T19:49:03.697Z,14.47
2022-10-29T19:51:32.441Z,17.97
2022-10-29T19:54:02.482Z,20.80
2022-10-29T19:56:32.792Z,20.43
2022-10-29T19:59:00.775Z,21.23
2022-10-29T20:01:28.828Z,16.03
2022-10-29T20:03:58.588Z,18.10
2022-10-29T20:06:26.644Z,16.37
2022-10-29T20:08:54.943Z,14.77
2022-10-29T20:11:23.084Z,19.30
2022-10-29T20:13:52.668Z,17.43
2022-10-29T20:16:22.557Z,16.27
2022-10-29T20:18:50.990Z,17.73
2022-10-29T20:21:19.190Z,15.20
2022-10-29T20:23:47.466Z,20.83
2022-10-29T20:26:15.672Z,15.77
2022-10-29T20:28:43.753Z,19.90
2022-10-29T20:31:30.019Z,14.90
2022-10-29T20:34:01.412Z,16.43
2022-10-29T20:36:31.352Z,20.50
2022-10-29T20:39:00.158Z,23.70
2022-10-29T20:41:28.850Z,19.03
2022-10-29T20:43:58.510Z,14.87
2022-10-29T20:46:29.523Z,10.20
2022-10-29T20:48:57.544Z,12.20
2022-10-29T20:51:26.414Z,10.77
2022-10-29T20:53:55.371Z,12.03
2022-10-29T20:56:25.941Z,10.87
2022-10-29T20:58:54.084Z,15.13
2022-10-29T21:01:24.203Z,16.63
2022-10-29T21:03:53.931Z,10.73
2022-10-29T21:06:22.489Z,19.10
2022-10-29T21:08:52.158Z,20.20
2022-10-29T21:11:21.718Z,21.00
2022-10-29T21:13:50.387Z,21.20
2022-10-29T21:16:20.410Z,19.33
2022-10-29T21:18:50.132Z,17.67
2022-10-29T21:21:20.192Z,17.37
2022-10-29T21:23:48.507Z,22.10
2022-10-29T21:26:18.272Z,33.03
2022-10-29T21:28:47.009Z,34.67
2022-10-29T21:31:15.399Z,50.80
2022-10-29T21:33:43.873Z,55.17
2022-10-29T21:36:14.068Z,57.13
2022-10-29T21:38:43.642Z,59.30
2022-10-29T21:41:12.205Z,47.67
2022-10-29T21:43:40.526Z,40.63
2022-10-29T21:46:08.979Z,38.77
2022-10-29T21:48:37.019Z,36.77
2022-10-29T21:51:07.451Z,37.67
2022-10-29T21:53:35.780Z,38.67
2022-10-29T21:56:07.594Z,46.57
2022-10-29T21:58:36.067Z,42.53
2022-10-29T22:01:06.972Z,35.17
2022-10-29T22:03:36.431Z,36.93
2022-10-29T22:06:05.931Z,33.37
2022-10-29T22:08:34.038Z,30.10
2022-10-29T22:11:02.589Z,27.30
2022-10-29T22:13:33.192Z,21.90
2022-10-29T22:16:01.277Z,20.93
2022-10-29T22:18:29.544Z,17.80
2022-10-29T22:21:08.108Z,22.90
2022-10-29T22:23:38.042Z,20.20
2022-10-29T22:26:06.253Z,19.13
2022-10-29T22:28:35.707Z,16.13
2022-10-29T22:31:05.341Z,18.07
2022-10-29T22:33:34.856Z,15.87
2022-10-29T22:36:08.362Z,22.33
2022-10-29T22:38:36.972Z,17.13
2022-10-29T22:41:06.735Z,15.83
2022-10-29T22:43:36.529Z,14.20
2022-10-29T22:46:05.919Z,17.37
2022-10-29T22:48:34.400Z,17.03
2022-10-29T22:51:04.503Z,14.10
2022-10-29T22:53:33.317Z,11.50
2022-10-29T22:56:02.528Z,10.73
2022-10-29T22:58:30.610Z,11.27
2022-10-29T23:01:05.399Z,13.53
2022-10-29T23:03:34.171Z,13.73
2022-10-29T23:06:03.802Z,10.70
2022-10-29T23:08:32.340Z,10.97
2022-10-29T23:11:00.732Z,26.57
2022-10-29T23:13:28.722Z,18.77
2022-10-29T23:15:56.716Z,16.80
2022-10-29T23:18:26.115Z,14.60
2022-10-29T23:21:00.407Z,13.93
2022-10-29T23:23:29.067Z,13.53
2022-10-29T23:26:00.982Z,11.40
2022-10-29T23:28:29.794Z,14.07
2022-10-29T23:30:59.028Z,12.37
2022-10-29T23:33:28.838Z,13.23
2022-10-29T23:35:57.179Z,14.90
2022-10-29T23:38:25.603Z,14.17
2022-10-29T23:40:53.613Z,14.63
2022-10-29T23:43:21.608Z,12.47
2022-10-29T23:45:49.978Z,10.67
2022-10-29T23:48:19.320Z,12.17
2022-10-29T23:50:49.227Z,9.87
2022-10-29T23:53:17.371Z,13.50
2022-10-29T23:55:46.285Z,10.33
2022-10-29T23:58:14.916Z,12.07
